Aérodrome :
LOGIN :

S'inscrire | Disclaimer

   EN    FR    IT 

 










Légende :    VFR   VFR Marginal   IFR   IFR Intensif   IFR Très Intensif
Visi : 
Plafond : 
>= 8 km
>= 3000ft
5 à 8 km
1000 à 3000 ft
1500m à 5 km
500 à 1000 ft
800 à 1500m
200 à 500 ft
< 800m
< 200 ft
Symboles :   Orages  Brouillard  Fortes neiges  Fortes précipitations  Vent > 20 kt
SIGMETs :   Divers  Orages  Givrage  Turbulence  Onde Orograph.  Cendres Volcan.






- Altitude de l'aérodrome : 49 ft
- Code IATA : GLZ


EHGR - Gilze-Rijen Airbase

DERNIER METAR :
  • 221925Z AUTO 18001KT 9999 OVC120 11/10 Q1023 BLU VRB02KT CAVOK TEMPO FEW030

METARs EXPIRÉS :
  • 221902Z AUTO 18001KT 9999 FEW029 OVC120 11/11 Q1023 BLU VRB02KT CAVOK TEMPO FEW030
  • 221855Z AUTO 00000KT 9999 OVC120 11/11 Q1023 BLU VRB02KT CAVOK TEMPO FEW024
  • 221836Z AUTO 00000KT 9999 OVC028 11/11 Q1023 BLU VRB02KT CAVOK TEMPO FEW024
  • 221825Z AUTO 19001KT 9999 OVC120 12/11 Q1023 BLU VRB02KT CAVOK TEMPO FEW024
  • 221801Z AUTO 23002KT 9999 FEW023 OVC130 12/11 Q1024 BLU VRB02KT CAVOK TEMPO FEW024
  • 221755Z AUTO 22002KT 9999 OVC130 12/11 Q1023 BLU VRB02KT CAVOK TEMPO SCT024
  • 221725Z AUTO VRB02KT 9999 OVC130 11/11 Q1023 BLU VRB03KT CAVOK TEMPO SCT024
  • 221713Z AUTO 18003KT 100V200 9999 FEW023 OVC130 11/10 Q1023 BLU VRB03KT CAVOK TEMPO SCT024
  • 221656Z AUTO 22003KT 160V230 9999 OVC024 12/11 Q1023 WHT VRB03KT CAVOK
  • 221655Z AUTO 23003KT 160V230 9999 BKN025 OVC140 12/11 Q1023 BLU VRB03KT CAVOK
  • 221630Z AUTO 24002KT 9999 SCT024 OVC140 12/11 Q1023 WHT VRB03KT CAVOK

TAF TAF EHGR
Valide du 22 à 17h jusqu'au 23 à 05h UTC


221620Z 2217/2305 VRB02KT 9999 SCT025
BECMG 2218/2220 4000 BR MIFG
PROB30 2220/2305 0800 FG
BECMG 2223/2302 04004KT



MET'MAP, la Météo Aéronautique d'un coup d'oeil ! - Copyright ORBIFLY Décembre 2007 - Disclaimer

ORBIFLY MET'MAP TEAM :

Programmation & Développement : Alexandra Zaïnal
Conception & Développement : Baudouin d'Aumeries
Co-Programmation & Développement : Marc-Olivier Méhu
Soutien technique & logistique : Manuel Goepfert

Contact : metmap@orbifly.com




SOURCES & CREDITS :

   NOAA